Time;durP1;ratioP1;P1;durP2;ratioP2;P2;SDS_P1;SDS_P2;PMS_P1;PMS_P2;Temp;Humidity;BMP_temperature;BMP_pressure;BME280_temperature;BME280_humidity;BME280_pressure;Samples;Min_cycle;Max_cycle;Signal;HPM_P1;HPM_P2
2021/12/16 00:08:06;;;;;;;37.05;14.05;;;;;;;1.93;79.89;100384.91;1696308;84;21065;-83
2021/12/16 00:10:34;;;;;;;44.40;14.63;;;;;;;1.95;79.82;100389.28;1695507;84;21207;-85
2021/12/16 00:32:19;;;;;;;43.33;17.07;;;;;;;2.16;79.90;100391.59;1660719;85;21008;-85
2021/12/16 00:34:36;;;;;;;46.35;18.98;;;;;;;2.23;79.80;100386.25;1693879;83;21012;-84
2021/12/16 00:37:04;;;;;;;47.25;17.60;;;;;;;2.24;79.42;100380.70;1692547;83;21028;-84
2021/12/16 00:39:35;;;;;;;42.60;17.05;;;;;;;2.24;79.75;100384.12;1692290;84;21018;-85
2021/12/16 00:42:14;;;;;;;43.40;17.00;;;;;;;2.27;79.81;100388.08;1694094;84;21004;-85
2021/12/16 00:54:09;;;;;;;42.10;16.62;;;;;;;2.24;78.46;100389.68;1684950;84;21039;-83
2021/12/16 00:55:34;;;;;;;37.33;14.95;;;;;;;2.18;79.01;100398.06;1675466;84;20989;-82
2021/12/16 00:57:52;;;;;;;41.70;14.55;;;;;;;2.16;78.97;100403.14;1675254;84;21069;-84
2021/12/16 01:00:20;;;;;;;39.75;16.12;;;;;;;2.15;79.12;100394.14;1688368;84;21119;-84
2021/12/16 01:34:00;;;;;;;39.20;16.90;;;;;;;2.30;78.94;100371.47;1676222;84;21079;-82
2021/12/16 01:36:36;;;;;;;38.42;15.80;;;;;;;2.30;79.08;100371.89;1659686;85;21001;-81
2021/12/16 01:39:23;;;;;;;45.03;18.45;;;;;;;2.28;79.16;100357.73;1727742;82;21038;-84
2021/12/16 01:49:54;;;;;;;42.95;16.07;;;;;;;2.25;78.69;100355.48;1756713;80;21031;-85
2021/12/16 01:55:07;;;;;;;41.60;15.98;;;;;;;2.19;78.85;100344.23;1707828;83;21036;-84
2021/12/16 01:57:37;;;;;;;39.08;15.95;;;;;;;2.23;79.35;100344.30;1729993;83;21037;-84
2021/12/16 02:00:06;;;;;;;40.60;15.93;;;;;;;2.22;79.19;100346.01;1751669;82;21055;-85
2021/12/16 02:02:45;;;;;;;47.13;17.45;;;;;;;2.26;79.33;100344.41;1746142;80;21079;-85
2021/12/16 02:10:41;;;;;;;47.20;18.35;;;;;;;2.22;79.24;100338.73;1731262;81;20988;-84
2021/12/16 02:37:34;;;;;;;40.45;16.10;;;;;;;2.18;79.22;100327.08;1729446;83;20991;-84
2021/12/16 02:40:05;;;;;;;42.40;15.72;;;;;;;2.18;79.11;100327.08;1724121;83;21079;-85
2021/12/16 02:42:41;;;;;;;47.27;16.20;;;;;;;2.19;79.08;100328.84;1726145;81;21004;-83
2021/12/16 02:50:23;;;;;;;43.20;16.90;;;;;;;2.21;79.47;100319.91;1725680;83;21070;-84
2021/12/16 02:52:50;;;;;;;42.80;16.50;;;;;;;2.21;80.14;100317.73;1694967;83;21027;-84
2021/12/16 02:55:20;;;;;;;44.53;16.12;;;;;;;2.23;80.14;100314.41;1690657;84;20969;-83
2021/12/16 02:57:55;;;;;;;41.53;16.73;;;;;;;2.26;80.39;100309.77;1710352;82;21127;-83
2021/12/16 03:00:17;;;;;;;39.73;17.10;;;;;;;2.28;80.46;100304.27;1709985;83;21051;-85
2021/12/16 03:02:50;;;;;;;48.28;17.12;;;;;;;2.28;80.25;100301.70;1709230;83;21410;-84
2021/12/16 03:05:20;;;;;;;41.42;16.57;;;;;;;2.30;80.29;100301.32;1707569;82;21015;-83
2021/12/16 03:07:49;;;;;;;43.25;17.10;;;;;;;2.31;80.36;100296.23;1718609;82;21083;-81
2021/12/16 03:12:56;;;;;;;44.27;16.48;;;;;;;2.31;80.27;100300.09;1727960;83;21099;-83
2021/12/16 03:18:13;;;;;;;44.65;14.90;;;;;;;2.26;80.19;100310.63;1709737;83;20991;-85
2021/12/16 03:20:47;;;;;;;44.70;17.32;;;;;;;2.21;80.21;100306.19;1691462;83;21043;-82
2021/12/16 03:23:39;;;;;;;45.75;16.07;;;;;;;2.17;80.39;100303.55;1708576;82;21026;-83
2021/12/16 03:38:56;;;;;;;47.60;18.42;;;;;;;2.05;80.91;100316.03;1746746;80;21033;-84
2021/12/16 03:41:24;;;;;;;46.85;17.50;;;;;;;2.05;80.82;100321.17;1730150;81;20996;-84
2021/12/16 03:43:57;;;;;;;38.13;15.35;;;;;;;2.04;80.95;100310.44;1730275;82;20983;-83
2021/12/16 03:46:29;;;;;;;41.80;15.83;;;;;;;2.04;80.97;100308.29;1731478;83;21096;-85
2021/12/16 03:49:07;;;;;;;46.68;16.97;;;;;;;2.06;81.12;100309.20;1733219;81;20996;-84
2021/12/16 03:51:55;;;;;;;43.90;16.62;;;;;;;2.06;81.03;100302.38;1695253;83;21034;-84
2021/12/16 03:54:27;;;;;;;45.52;16.67;;;;;;;2.04;81.01;100304.44;1714716;81;21055;-84
2021/12/16 03:56:59;;;;;;;42.45;16.95;;;;;;;2.02;80.97;100299.27;1733299;82;20988;-82
2021/12/16 03:59:31;;;;;;;43.25;17.35;;;;;;;2.01;80.99;100301.39;1739062;81;21012;-84
2021/12/16 04:02:07;;;;;;;38.48;16.42;;;;;;;1.99;80.71;100297.48;1670085;83;21056;-83
2021/12/16 04:04:36;;;;;;;44.42;17.27;;;;;;;1.94;80.61;100299.45;1717734;81;21122;-84
2021/12/16 04:07:06;;;;;;;43.48;17.27;;;;;;;1.89;80.64;100299.33;1726016;82;21332;-84
2021/12/16 04:09:34;;;;;;;47.20;17.20;;;;;;;1.85;80.74;100296.61;1716482;82;21010;-84
2021/12/16 04:12:09;;;;;;;41.20;14.35;;;;;;;1.79;80.83;100302.03;1723796;82;20985;-84
2021/12/16 04:14:39;;;;;;;38.13;14.50;;;;;;;1.74;80.93;100295.89;1721320;82;20992;-84
2021/12/16 04:17:09;;;;;;;38.13;15.00;;;;;;;1.75;80.93;100297.64;1725622;82;21011;-83
2021/12/16 04:19:38;;;;;;;46.50;15.58;;;;;;;1.74;80.95;100295.03;1723372;81;20999;-84
2021/12/16 04:22:10;;;;;;;44.10;15.30;;;;;;;1.74;81.17;100306.56;1706306;82;20992;-84
2021/12/16 04:24:39;;;;;;;;;;;;;;;1.73;81.45;100306.09;1709103;83;20972;-84
2021/12/16 04:27:08;;;;;;;40.28;15.20;;;;;;;1.73;81.49;100308.27;1727583;82;20130;-83
2021/12/16 04:29:36;;;;;;;47.25;16.52;;;;;;;1.75;81.54;100304.44;1721929;83;21020;-81
2021/12/16 04:32:04;;;;;;;46.10;16.67;;;;;;;1.76;81.57;100308.77;1719591;83;21008;-81
2021/12/16 04:34:31;;;;;;;51.65;18.17;;;;;;;1.76;81.63;100312.61;1722868;82;21013;-81
2021/12/16 04:36:59;;;;;;;42.43;15.88;;;;;;;1.75;81.60;100310.47;1717450;81;21033;-84
2021/12/16 04:39:29;;;;;;;44.45;17.70;;;;;;;1.77;81.67;100308.81;1727025;83;21034;-84
2021/12/16 04:41:57;;;;;;;44.27;17.07;;;;;;;1.74;81.58;100310.41;1726912;83;21031;-85
2021/12/16 04:44:27;;;;;;;49.70;17.70;;;;;;;1.73;81.50;100313.78;1729020;81;21033;-84
2021/12/16 04:46:57;;;;;;;44.38;14.47;;;;;;;1.72;81.34;100308.22;1729069;82;21002;-84
2021/12/16 04:49:25;;;;;;;49.65;18.07;;;;;;;1.63;81.56;100312.63;1728651;83;21380;-84
2021/12/16 04:51:56;;;;;;;43.08;15.75;;;;;;;1.58;81.53;100311.64;1728791;83;21015;-84
2021/12/16 04:54:25;;;;;;;46.88;16.37;;;;;;;1.54;81.96;100306.83;1727087;82;21071;-84
2021/12/16 04:56:54;;;;;;;43.45;15.38;;;;;;;1.52;82.02;100304.63;1727689;81;21067;-83
2021/12/16 04:59:22;;;;;;;47.98;16.85;;;;;;;1.57;82.19;100308.60;1727667;83;20998;-84
2021/12/16 05:01:56;;;;;;;44.40;15.88;;;;;;;1.62;82.31;100310.05;1728849;82;21085;-83
2021/12/16 05:04:25;;;;;;;44.73;17.90;;;;;;;1.62;82.09;100307.06;1721354;81;21091;-85
2021/12/16 05:06:52;;;;;;;44.08;15.18;;;;;;;1.65;82.47;100309.73;1727029;82;20995;-84
2021/12/16 05:12:14;;;;;;;45.85;16.85;;;;;;;1.67;82.42;100311.94;1724256;82;21020;-84
2021/12/16 05:14:44;;;;;;;45.23;17.77;;;;;;;1.66;82.39;100310.17;1709165;82;21019;-84
2021/12/16 05:17:24;;;;;;;45.80;17.90;;;;;;;1.69;82.37;100315.41;1727335;82;20985;-83
2021/12/16 05:19:49;;;;;;;43.78;17.62;;;;;;;1.73;82.24;100322.76;1726422;82;21018;-82
2021/12/16 05:24:58;;;;;;;42.23;17.37;;;;;;;1.78;82.01;100323.36;1724851;83;21038;-85
2021/12/16 05:27:24;;;;;;;44.40;16.70;;;;;;;1.75;82.06;100322.00;1704961;82;21261;-83
2021/12/16 05:29:51;;;;;;;51.40;17.48;;;;;;;1.73;81.88;100315.96;1734169;82;20982;-83
2021/12/16 05:32:18;;;;;;;43.20;17.60;;;;;;;1.72;81.78;100318.47;1727996;81;21041;-83
2021/12/16 05:34:45;;;;;;;49.03;19.10;;;;;;;1.73;81.64;100319.80;1726346;81;21050;-84
2021/12/16 05:37:12;;;;;;;49.80;17.02;;;;;;;1.73;81.78;100325.32;1720188;81;21005;-83
2021/12/16 05:39:40;;;;;;;42.87;16.20;;;;;;;1.74;81.79;100322.81;1724628;83;21027;-83
2021/12/16 05:42:11;;;;;;;46.53;16.32;;;;;;;1.75;81.74;100326.23;1727257;83;21006;-84
2021/12/16 05:44:39;;;;;;;37.40;15.23;;;;;;;1.75;81.35;100327.13;1729207;83;20952;-83
2021/12/16 05:47:10;;;;;;;39.78;14.85;;;;;;;1.76;81.70;100327.98;1731419;81;21017;-81
2021/12/16 05:49:37;;;;;;;45.20;15.88;;;;;;;1.80;81.80;100325.97;1714052;83;20998;-83
2021/12/16 05:52:04;;;;;;;42.10;16.52;;;;;;;1.86;81.70;100329.14;1704130;84;21051;-83
2021/12/16 05:54:33;;;;;;;46.73;16.87;;;;;;;1.88;81.61;100330.05;1726148;82;21622;-82
2021/12/16 05:57:03;;;;;;;45.88;16.55;;;;;;;1.92;81.93;100326.33;1734553;82;21003;-83
2021/12/16 05:59:30;;;;;;;50.65;21.05;;;;;;;1.96;81.97;100331.14;1708542;83;21611;-85
2021/12/16 06:01:59;;;;;;;51.08;19.15;;;;;;;1.94;81.67;100327.25;1727373;82;21063;-83
2021/12/16 06:04:27;;;;;;;50.48;19.32;;;;;;;1.95;81.54;100333.23;1733019;82;21067;-83
2021/12/16 06:06:56;;;;;;;46.00;19.02;;;;;;;1.93;81.36;100330.66;1731495;83;21003;-83
2021/12/16 06:09:22;;;;;;;50.55;18.80;;;;;;;1.91;81.33;100333.98;1743104;82;21072;-83
2021/12/16 06:11:53;;;;;;;46.30;18.50;;;;;;;1.88;81.32;100324.51;1701666;84;21008;-84
2021/12/16 06:27:54;;;;;;;69.30;23.62;;;;;;;1.51;81.01;100343.02;1736377;81;21075;-84
2021/12/16 06:30:32;;;;;;;62.05;24.82;;;;;;;1.44;81.43;100336.84;1736684;82;21016;-83
2021/12/16 06:33:02;;;;;;;55.20;20.77;;;;;;;1.41;81.41;100347.40;1717759;81;21019;-80
2021/12/16 06:35:29;;;;;;;61.23;21.52;;;;;;;1.37;81.55;100341.30;1722552;82;21028;-80
2021/12/16 06:37:57;;;;;;;59.95;19.82;;;;;;;1.37;81.70;100346.03;1720965;81;21075;-81
2021/12/16 06:40:29;;;;;;;59.35;21.73;;;;;;;1.41;81.94;100344.83;1714000;82;21015;-79
2021/12/16 06:43:02;;;;;;;72.92;26.60;;;;;;;1.43;82.08;100342.77;1675008;81;21080;-83
2021/12/16 06:45:34;;;;;;;83.07;29.15;;;;;;;1.50;82.09;100344.72;1718519;82;21046;-83
2021/12/16 06:48:06;;;;;;;80.67;30.00;;;;;;;1.55;82.17;100346.13;1726551;83;20995;-84
2021/12/16 06:50:55;;;;;;;71.85;26.02;;;;;;;1.59;82.15;100342.45;1701699;83;20998;-83
2021/12/16 06:53:25;;;;;;;65.87;23.90;;;;;;;1.64;82.07;100347.71;1677237;84;21004;-83
2021/12/16 06:56:00;;;;;;;54.85;19.77;;;;;;;1.69;81.97;100357.71;1682751;81;21613;-82
2021/12/16 07:00:49;;;;;;;49.35;19.32;;;;;;;1.69;81.64;100355.15;1700032;84;21037;-83
2021/12/16 07:03:21;;;;;;;61.90;18.73;;;;;;;1.68;82.11;100350.83;1695135;84;21050;-83
2021/12/16 07:05:53;;;;;;;57.25;18.60;;;;;;;1.67;82.06;100349.10;1700367;84;21011;-84
2021/12/16 07:08:23;;;;;;;44.93;17.97;;;;;;;1.63;82.25;100340.83;1689638;84;21095;-84
2021/12/16 07:10:54;;;;;;;48.75;19.27;;;;;;;1.65;82.21;100340.50;1700375;83;21022;-84
2021/12/16 07:13:30;;;;;;;61.42;19.90;;;;;;;1.72;82.19;100342.83;1684711;84;21010;-85
2021/12/16 07:15:50;;;;;;;54.15;18.77;;;;;;;1.73;82.28;100345.44;1696028;83;21292;-82
2021/12/16 07:18:17;;;;;;;55.00;19.23;;;;;;;1.77;82.35;100333.17;1701632;83;21082;-83
2021/12/16 07:20:43;;;;;;;50.45;19.57;;;;;;;1.76;82.48;100327.57;1697163;83;21097;-81
2021/12/16 07:23:10;;;;;;;54.80;21.02;;;;;;;1.92;82.19;100339.16;1698191;83;21074;-81
2021/12/16 07:25:38;;;;;;;45.65;18.57;;;;;;;1.98;81.85;100339.34;1691920;83;21014;-85
2021/12/16 07:28:07;;;;;;;56.63;20.70;;;;;;;2.07;82.09;100340.03;1682737;83;21075;-85
2021/12/16 07:30:41;;;;;;;52.03;19.87;;;;;;;2.16;82.02;100350.55;1700402;83;21079;-82
2021/12/16 07:33:10;;;;;;;47.15;18.00;;;;;;;2.23;81.72;100343.91;1698731;83;21000;-84
2021/12/16 07:35:38;;;;;;;56.20;19.45;;;;;;;2.30;81.42;100342.38;1702880;83;21131;-84
2021/12/16 07:38:08;;;;;;;54.95;20.15;;;;;;;2.37;81.62;100344.30;1698596;83;21262;-82
2021/12/16 07:40:36;;;;;;;47.90;17.48;;;;;;;2.42;81.11;100347.85;1712568;82;21091;-88
2021/12/16 07:45:37;;;;;;;56.58;21.57;;;;;;;2.52;80.98;100348.98;1704730;79;21059;-82
2021/12/16 07:48:04;;;;;;;59.58;23.27;;;;;;;2.51;80.86;100339.55;1677123;83;21067;-82
2021/12/16 07:50:32;;;;;;;63.90;21.77;;;;;;;2.55;81.06;100343.52;1709461;82;21047;-81
2021/12/16 07:52:59;;;;;;;56.48;20.62;;;;;;;2.58;81.45;100344.02;1708184;82;21005;-82
2021/12/16 07:55:28;;;;;;;56.00;21.12;;;;;;;2.63;81.36;100342.88;1683054;82;21085;-86
2021/12/16 07:57:54;;;;;;;48.35;17.92;;;;;;;2.66;81.43;100333.95;1731696;80;21127;-88
2021/12/16 08:00:26;;;;;;;42.85;14.85;;;;;;;2.74;81.36;100341.44;1720618;81;21024;-85
2021/12/16 08:02:53;;;;;;;38.50;14.03;;;;;;;2.67;79.57;100342.98;1725675;81;21035;-85
2021/12/16 08:05:25;;;;;;;46.80;15.93;;;;;;;2.63;80.39;100337.31;1734713;79;21042;-86
2021/12/16 08:07:52;;;;;;;47.65;18.07;;;;;;;2.65;80.42;100333.52;1738133;80;21011;-83
2021/12/16 08:10:23;;;;;;;39.03;14.87;;;;;;;2.67;80.42;100349.83;1752690;79;21006;-83
2021/12/16 08:12:51;;;;;;;45.43;18.17;;;;;;;2.68;80.13;100339.58;1756294;81;20944;-84
2021/12/16 08:15:20;;;;;;;51.40;18.42;;;;;;;2.75;80.09;100336.77;1747340;80;21037;-83
2021/12/16 08:17:47;;;;;;;44.20;18.62;;;;;;;2.85;80.26;100340.03;1719855;82;20992;-82
2021/12/16 08:20:18;;;;;;;45.73;17.85;;;;;;;2.88;79.96;100343.95;1722607;82;21065;-85
2021/12/16 08:22:47;;;;;;;44.25;16.65;;;;;;;2.85;78.82;100337.47;1739625;79;21176;-89
2021/12/16 08:25:16;;;;;;;45.25;17.05;;;;;;;2.78;78.83;100338.98;1773982;81;20990;-85
2021/12/16 08:27:45;;;;;;;45.65;16.55;;;;;;;2.80;78.72;100345.45;1780503;79;21067;-84
2021/12/16 08:30:17;;;;;;;44.05;16.10;;;;;;;2.84;79.42;100347.27;1774566;80;21034;-84
2021/12/16 08:32:44;;;;;;;35.13;13.08;;;;;;;2.87;79.26;100343.52;1738933;79;21426;-84
2021/12/16 08:35:12;;;;;;;66.72;25.80;;;;;;;2.96;78.64;100346.72;1783141;79;20987;-83
2021/12/16 08:37:39;;;;;;;43.13;18.90;;;;;;;3.03;78.52;100343.91;1727592;80;21075;-83
2021/12/16 08:40:12;;;;;;;51.35;18.35;;;;;;;3.12;78.97;100341.16;1725424;82;21085;-82
2021/12/16 08:42:39;;;;;;;38.85;14.33;;;;;;;3.19;78.28;100331.47;1720389;82;21012;-81
2021/12/16 08:45:14;;;;;;;42.48;18.10;;;;;;;3.25;78.88;100338.47;1724160;82;21034;-82
2021/12/16 08:47:41;;;;;;;42.85;16.07;;;;;;;3.31;78.82;100335.18;1722426;82;21035;-82
2021/12/16 08:50:14;;;;;;;35.83;13.15;;;;;;;3.33;78.28;100340.80;1747397;81;21140;-82
2021/12/16 08:52:41;;;;;;;40.92;15.23;;;;;;;3.37;78.03;100340.04;1737674;81;21143;-83
2021/12/16 08:55:09;;;;;;;38.25;14.15;;;;;;;3.47;77.90;100335.13;1777676;79;20990;-82
2021/12/16 08:57:38;;;;;;;41.73;15.75;;;;;;;3.56;78.45;100327.61;1746538;81;21032;-83
2021/12/16 09:00:11;;;;;;;43.23;15.63;;;;;;;3.57;78.06;100328.08;1733652;81;21011;-84
2021/12/16 09:02:37;;;;;;;46.05;16.32;;;;;;;3.64;78.04;100318.39;1778937;79;21007;-85
2021/12/16 09:05:06;;;;;;;41.63;15.50;;;;;;;3.76;78.20;100317.38;1744738;80;21117;-86
2021/12/16 09:07:32;;;;;;;37.42;16.25;;;;;;;3.85;78.27;100324.41;1744580;80;20956;-84
2021/12/16 09:09:59;;;;;;;37.93;15.48;;;;;;;3.95;77.28;100319.05;1761616;80;21045;-82
2021/12/16 09:15:07;;;;;;;40.33;15.25;;;;;;;4.19;75.64;100314.40;1769626;80;21062;-83
2021/12/16 09:17:34;;;;;;;43.38;14.87;;;;;;;4.27;76.15;100313.70;1772471;79;20987;-82
2021/12/16 09:20:03;;;;;;;42.38;15.83;;;;;;;4.38;77.22;100298.05;1764601;80;21164;-86
2021/12/16 09:22:30;;;;;;;36.55;15.38;;;;;;;4.32;75.45;100300.08;1746291;79;21119;-87
2021/12/16 09:24:57;;;;;;;35.10;14.83;;;;;;;4.36;76.35;100304.45;1743930;80;21082;-84
2021/12/16 09:27:26;;;;;;;40.45;14.53;;;;;;;4.32;74.74;100302.66;1742976;81;21538;-86
2021/12/16 09:29:54;;;;;;;42.20;15.08;;;;;;;4.38;75.78;100290.33;1731598;82;21016;-85
2021/12/16 09:32:23;;;;;;;40.12;15.03;;;;;;;4.30;74.42;100298.33;1741341;81;20984;-84
2021/12/16 09:34:50;;;;;;;40.00;15.38;;;;;;;4.27;73.37;100297.82;1736898;82;21036;-83
2021/12/16 09:37:16;;;;;;;42.27;15.18;;;;;;;4.35;75.85;100292.83;1732902;81;21026;-82
2021/12/16 09:39:43;;;;;;;32.25;12.70;;;;;;;4.36;76.00;100285.14;1734274;81;21008;-81
2021/12/16 09:42:10;;;;;;;38.25;12.50;;;;;;;4.30;75.85;100291.89;1745126;81;21042;-83
2021/12/16 09:44:38;;;;;;;39.83;14.87;;;;;;;4.27;74.14;100299.11;1699423;81;21090;-91
2021/12/16 09:47:09;;;;;;;36.33;12.70;;;;;;;4.32;76.18;100300.52;1689822;84;21012;-86
2021/12/16 09:49:37;;;;;;;29.52;13.15;;;;;;;4.35;76.56;100304.41;1717743;83;21043;-81
2021/12/16 09:52:07;;;;;;;41.85;14.53;;;;;;;4.38;75.33;100307.06;1725625;81;21019;-79
2021/12/16 09:54:35;;;;;;;48.50;13.68;;;;;;;4.50;75.44;100299.56;1693339;82;21021;-81
2021/12/16 09:57:04;;;;;;;42.50;15.45;;;;;;;4.67;75.70;100301.58;1714302;82;21322;-80
2021/12/16 09:59:33;;;;;;;39.18;14.53;;;;;;;4.75;74.62;100295.70;1690691;83;20998;-82
2021/12/16 10:02:07;;;;;;;33.18;13.40;;;;;;;4.71;72.19;100293.92;1711823;83;20969;-83
2021/12/16 10:04:36;;;;;;;39.35;14.05;;;;;;;4.60;73.11;100292.02;1708920;84;21091;-84
2021/12/16 10:07:14;;;;;;;42.65;17.87;;;;;;;4.68;73.41;100287.44;1709529;82;21022;-80
2021/12/16 10:09:43;;;;;;;53.15;18.20;;;;;;;4.82;74.20;100285.11;1710441;82;20961;-85
2021/12/16 10:12:16;;;;;;;36.48;14.90;;;;;;;4.97;72.78;100288.35;1693413;83;21054;-81
2021/12/16 10:17:24;;;;;;;44.25;19.12;;;;;;;5.27;72.34;100289.30;1700341;82;21018;-84
2021/12/16 10:19:52;;;;;;;35.28;15.88;;;;;;;5.40;74.22;100285.61;1691219;83;21035;-84
2021/12/16 10:22:28;;;;;;;42.55;16.45;;;;;;;5.28;71.66;100288.44;1726199;82;21008;-83
2021/12/16 10:25:17;;;;;;;45.73;18.82;;;;;;;5.23;71.32;100287.91;1698766;83;21049;-85
2021/12/16 10:28:06;;;;;;;44.90;19.48;;;;;;;5.11;72.61;100277.87;1718047;82;21109;-81
2021/12/16 10:31:03;;;;;;;61.98;22.85;;;;;;;4.97;72.75;100272.49;1716753;83;20981;-83
2021/12/16 10:33:49;;;;;;;53.40;22.50;;;;;;;4.85;72.04;100265.82;1692050;83;21056;-81
2021/12/16 10:36:30;;;;;;;58.08;27.73;;;;;;;4.85;71.98;100261.95;1680509;85;20987;-84
2021/12/16 10:39:13;;;;;;;43.48;17.95;;;;;;;4.81;72.51;100258.88;1721260;82;21037;-84
2021/12/16 10:41:57;;;;;;;44.90;18.82;;;;;;;4.91;73.24;100256.90;1690014;84;21078;-85
2021/12/16 10:44:28;;;;;;;49.27;19.70;;;;;;;4.95;72.21;100246.23;1729389;83;21021;-84
2021/12/16 10:47:10;;;;;;;41.23;16.95;;;;;;;5.11;72.50;100247.34;1731446;80;21258;-82
2021/12/16 10:49:42;;;;;;;49.70;20.52;;;;;;;5.26;73.04;100245.00;1732223;80;21024;-84
2021/12/16 10:52:27;;;;;;;50.50;18.80;;;;;;;5.19;71.21;100247.03;1733031;81;20972;-83
2021/12/16 10:54:57;;;;;;;51.85;20.48;;;;;;;5.25;72.53;100243.68;1725959;81;20994;-85
2021/12/16 10:57:31;;;;;;;44.25;18.77;;;;;;;5.30;72.89;100244.20;1718189;82;21118;-82
2021/12/16 11:00:12;;;;;;;56.83;20.05;;;;;;;5.54;72.43;100245.39;1707329;82;21231;-83
2021/12/16 11:02:40;;;;;;;47.80;17.98;;;;;;;5.72;72.00;100239.18;1729664;81;21602;-82
2021/12/16 11:05:20;;;;;;;43.63;18.40;;;;;;;5.82;70.31;100238.88;1650661;84;21067;-82
2021/12/16 11:07:55;;;;;;;41.33;16.82;;;;;;;5.92;70.49;100230.39;1720578;82;20999;-80
2021/12/16 11:10:33;;;;;;;48.87;19.80;;;;;;;6.03;71.61;100231.86;1691535;83;21037;-82
2021/12/16 11:13:04;;;;;;;49.93;19.98;;;;;;;6.09;69.96;100229.78;1697479;82;21012;-81
2021/12/16 11:15:41;;;;;;;;;;;;;;;6.09;69.51;100232.36;1722542;81;21035;-83
2021/12/16 11:18:15;;;;;;;41.18;17.42;;;;;;;6.04;69.12;100234.87;1727934;81;20148;-82
2021/12/16 11:20:45;;;;;;;;;;;;;;;6.08;71.04;100226.31;1723089;82;20991;-81
2021/12/16 11:23:26;;;;;;;41.50;17.07;;;;;;;6.00;69.11;100228.38;1710308;81;20204;-82
2021/12/16 11:26:01;;;;;;;44.48;20.10;;;;;;;5.95;70.03;100229.19;1734647;81;21003;-81
2021/12/16 11:28:33;;;;;;;45.35;19.20;;;;;;;6.07;71.13;100232.34;1727053;81;20964;-81
2021/12/16 11:31:11;;;;;;;53.40;21.12;;;;;;;6.08;70.56;100222.44;1712827;81;21015;-83
2021/12/16 11:33:50;;;;;;;41.40;18.73;;;;;;;5.93;69.62;100227.41;1740565;81;21032;-84
2021/12/16 11:36:24;;;;;;;44.50;19.07;;;;;;;5.74;69.81;100229.75;1706923;82;21025;-85
2021/12/16 11:39:03;;;;;;;43.40;18.75;;;;;;;5.66;68.35;100227.92;1701014;83;21135;-83
2021/12/16 11:41:40;;;;;;;49.70;18.85;;;;;;;5.61;69.82;100226.59;1724955;82;21069;-82
2021/12/16 11:44:28;;;;;;;46.08;20.00;;;;;;;5.58;69.52;100231.26;1728208;80;21168;-84
2021/12/16 11:47:20;;;;;;;41.88;17.15;;;;;;;5.43;68.66;100231.08;1723994;80;20987;-84
2021/12/16 11:49:56;;;;;;;49.60;19.30;;;;;;;5.33;69.83;100227.50;1738723;81;21045;-83
2021/12/16 11:52:36;;;;;;;41.28;17.70;;;;;;;5.30;69.68;100225.29;1765558;80;21034;-85
2021/12/16 11:55:13;;;;;;;40.08;18.12;;;;;;;5.33;70.21;100227.50;1768122;80;21073;-83
2021/12/16 11:57:47;;;;;;;48.38;20.25;;;;;;;5.29;70.84;100221.85;1774755;80;20999;-84
2021/12/16 12:00:25;;;;;;;63.65;21.95;;;;;;;5.30;70.57;100217.13;1760639;80;21065;-84
2021/12/16 12:03:02;;;;;;;47.60;19.30;;;;;;;5.36;70.74;100216.34;1764515;80;21071;-83
2021/12/16 12:05:46;;;;;;;49.10;19.62;;;;;;;5.43;70.48;100220.76;1761044;80;21021;-84
2021/12/16 12:08:22;;;;;;;50.10;18.20;;;;;;;5.48;70.95;100212.64;1768475;80;21098;-84
2021/12/16 12:11:01;;;;;;;44.23;18.80;;;;;;;5.53;70.82;100210.11;1759079;80;21099;-83
2021/12/16 12:13:41;;;;;;;48.28;19.50;;;;;;;5.53;70.86;100211.00;1761857;80;21035;-83
2021/12/16 12:16:26;;;;;;;42.38;17.77;;;;;;;5.50;70.34;100207.52;1763694;80;20978;-82
2021/12/16 12:19:03;;;;;;;46.33;19.12;;;;;;;5.38;68.88;100202.63;1741324;80;21037;-82
2021/12/16 12:21:55;;;;;;;49.75;17.85;;;;;;;5.32;70.42;100196.09;1752645;80;21031;-84
2021/12/16 12:24:31;;;;;;;49.60;19.05;;;;;;;5.26;70.55;100192.14;1764234;80;20988;-82
2021/12/16 12:27:13;;;;;;;48.13;17.92;;;;;;;5.27;71.00;100190.02;1757546;80;21030;-80
2021/12/16 12:29:53;;;;;;;39.90;15.48;;;;;;;5.28;70.44;100190.88;1762141;80;22207;-79
2021/12/16 12:32:25;;;;;;;167.40;42.43;;;;;;;5.31;70.95;100189.61;1759483;80;21550;-79
2021/12/16 12:35:03;;;;;;;67.62;24.98;;;;;;;5.32;71.30;100188.36;1760341;80;21432;-72
2021/12/16 12:37:36;;;;;;;43.60;19.23;;;;;;;5.32;70.44;100183.63;1755377;80;21010;-71
2021/12/16 12:40:20;;;;;;;51.10;19.42;;;;;;;5.33;71.14;100179.79;1762763;80;21019;-72
2021/12/16 12:42:51;;;;;;;53.90;19.30;;;;;;;5.27;71.24;100182.69;1759971;80;21061;-72
2021/12/16 12:45:23;;;;;;;40.08;17.05;;;;;;;5.26;71.72;100175.38;1760268;80;21108;-76
2021/12/16 12:47:54;;;;;;;46.10;19.75;;;;;;;5.30;71.78;100180.16;1762208;80;21161;-76
2021/12/16 12:50:29;;;;;;;39.20;16.82;;;;;;;5.21;70.20;100182.17;1731726;81;21075;-78
2021/12/16 12:53:00;;;;;;;57.35;18.62;;;;;;;5.16;70.71;100173.52;1731239;81;21035;-81
2021/12/16 12:55:31;;;;;;;45.43;17.57;;;;;;;5.17;70.59;100175.24;1717732;81;21577;-78
2021/12/16 12:58:12;;;;;;;44.30;18.98;;;;;;;5.19;70.82;100174.84;1725521;81;21123;-80
2021/12/16 13:00:50;;;;;;;51.60;20.57;;;;;;;5.23;70.97;100166.73;1726806;81;21055;-78
2021/12/16 13:03:35;;;;;;;50.48;20.57;;;;;;;5.17;70.86;100167.11;1727395;81;21198;-78
2021/12/16 13:06:10;;;;;;;51.95;20.65;;;;;;;5.04;70.80;100157.89;1731846;81;21055;-76
2021/12/16 13:08:45;;;;;;;46.75;20.72;;;;;;;4.92;71.86;100158.58;1731228;81;21049;-78
2021/12/16 13:11:19;;;;;;;61.88;22.30;;;;;;;4.86;71.74;100172.23;1734044;81;21052;-78
2021/12/16 13:14:18;;;;;;;59.45;21.82;;;;;;;4.74;71.89;100169.47;1729108;81;21138;-79
2021/12/16 13:23:28;;;;;;;145.55;62.10;;;;;;;4.68;72.37;100171.52;1732336;81;21118;-79
2021/12/16 13:28:38;;;;;;;72.58;29.55;;;;;;;4.64;73.24;100176.19;1703128;82;21034;-81
2021/12/16 13:31:02;;;;;;;65.60;26.55;;;;;;;4.67;72.99;100183.08;1705356;81;21007;-83
2021/12/16 13:33:44;;;;;;;68.10;25.60;;;;;;;4.60;73.32;100183.41;1702657;82;21031;-80
2021/12/16 13:36:25;;;;;;;50.55;21.02;;;;;;;4.61;73.83;100182.98;1683833;83;21822;-79
2021/12/16 13:38:49;;;;;;;55.65;21.90;;;;;;;4.60;73.79;100180.84;1709426;82;21567;-83
2021/12/16 13:41:27;;;;;;;61.42;21.90;;;;;;;4.54;73.35;100180.31;1682366;83;21046;-82
2021/12/16 13:44:15;;;;;;;59.30;19.95;;;;;;;4.41;73.67;100187.38;1709737;82;21026;-82
2021/12/16 13:47:11;;;;;;;54.83;20.72;;;;;;;4.33;73.54;100182.52;1712384;80;21068;-89
2021/12/16 14:01:33;;;;;;;49.25;19.50;;;;;;;4.01;75.62;100200.80;1751501;77;21095;-90
2021/12/16 14:06:57;;;;;;;59.20;19.50;;;;;;;3.93;75.81;100203.23;1740165;80;21108;-90
2021/12/16 14:09:29;;;;;;;50.98;19.23;;;;;;;3.86;76.07;100205.64;1739782;81;21058;-91
2021/12/16 14:15:10;;;;;;;51.92;20.02;;;;;;;3.87;76.22;100208.68;1653568;83;21190;-89
2021/12/16 14:17:54;;;;;;;55.12;21.93;;;;;;;3.87;76.14;100206.97;1650766;85;21268;-82
2021/12/16 14:23:43;;;;;;;57.88;20.32;;;;;;;3.73;76.40;100200.69;1728752;82;21126;-79
2021/12/16 14:26:34;;;;;;;52.80;20.48;;;;;;;3.71;75.81;100207.50;1709298;81;21154;-79
2021/12/16 14:34:54;;;;;;;52.55;18.23;;;;;;;3.47;76.11;100212.58;1739367;81;20983;-78
2021/12/16 14:42:40;;;;;;;51.90;18.27;;;;;;;3.33;76.58;100220.41;1732782;81;21055;-80
2021/12/16 14:45:29;;;;;;;45.78;17.45;;;;;;;3.31;76.59;100215.23;1738559;80;21020;-79
2021/12/16 14:50:54;;;;;;;51.28;21.10;;;;;;;3.30;77.84;100216.08;1738089;80;21069;-79
2021/12/16 14:53:35;;;;;;;52.62;19.52;;;;;;;3.31;77.61;100206.23;1738815;80;20994;-84
2021/12/16 14:56:19;;;;;;;45.80;17.73;;;;;;;3.30;77.55;100208.38;1738224;80;20970;-81
2021/12/16 14:58:56;;;;;;;54.18;18.30;;;;;;;3.30;77.65;100213.52;1737543;80;21890;-78
2021/12/16 15:01:28;;;;;;;56.55;19.82;;;;;;;3.30;77.77;100209.66;1741627;80;20974;-79
2021/12/16 15:03:55;;;;;;;53.23;22.37;;;;;;;3.30;77.97;100212.23;1702138;82;21028;-80